Time;durP1;ratioP1;P1;durP2;ratioP2;P2;SDS_P1;SDS_P2;PMS_P1;PMS_P2;Temp;Humidity;BMP_temperature;BMP_pressure;BME280_temperature;BME280_humidity;BME280_pressure;Samples;Min_cycle;Max_cycle;Signal;HPM_P1;HPM_P2
2021/05/08 00:01:33;;;;;;;0.8;0.8;;;;;;;;;;;;;
2021/05/08 00:04:16;;;;;;;1;0.9;;;;;;;;;;;;;
2021/05/08 00:06:23;;;;;;;1;0.9;;;;;;;;;;;;;
2021/05/08 00:08:48;;;;;;;1.3;1.2;;;;;;;;;;;;;
2021/05/08 00:11:13;;;;;;;2.2;1.3;;;;;;;;;;;;;
2021/05/08 00:13:39;;;;;;;0.6;0.6;;;;;;;;;;;;;
2021/05/08 00:16:04;;;;;;;2.1;0.9;;;;;;;;;;;;;
2021/05/08 00:18:29;;;;;;;1;0.9;;;;;;;;;;;;;
2021/05/08 00:20:54;;;;;;;1.5;0.9;;;;;;;;;;;;;
2021/05/08 00:23:19;;;;;;;1.7;1;;;;;;;;;;;;;
2021/05/08 00:25:45;;;;;;;1.5;0.9;;;;;;;;;;;;;
2021/05/08 00:28:10;;;;;;;1.3;0.7;;;;;;;;;;;;;
2021/05/08 00:30:36;;;;;;;0.8;0.7;;;;;;;;;;;;;
2021/05/08 00:33:01;;;;;;;0.7;0.5;;;;;;;;;;;;;
2021/05/08 00:35:26;;;;;;;0.5;0.5;;;;;;;;;;;;;
2021/05/08 00:37:51;;;;;;;1.8;1.3;;;;;;;;;;;;;
2021/05/08 00:40:16;;;;;;;2.9;0.9;;;;;;;;;;;;;
2021/05/08 00:42:42;;;;;;;1.9;1;;;;;;;;;;;;;
2021/05/08 00:45:07;;;;;;;3;0.7;;;;;;;;;;;;;
2021/05/08 00:47:32;;;;;;;0.7;0.7;;;;;;;;;;;;;
2021/05/08 00:49:58;;;;;;;1;0.8;;;;;;;;;;;;;
2021/05/08 00:52:23;;;;;;;0.9;0.8;;;;;;;;;;;;;
2021/05/08 00:54:48;;;;;;;0.8;0.5;;;;;;;;;;;;;
2021/05/08 00:57:13;;;;;;;1.7;1;;;;;;;;;;;;;
2021/05/08 00:59:38;;;;;;;1.1;0.6;;;;;;;;;;;;;
2021/05/08 01:02:03;;;;;;;1.1;0.9;;;;;;;;;;;;;
2021/05/08 01:04:29;;;;;;;1.1;0.9;;;;;;;;;;;;;
2021/05/08 01:06:54;;;;;;;1.7;1;;;;;;;;;;;;;
2021/05/08 01:09:19;;;;;;;0.8;0.8;;;;;;;;;;;;;
2021/05/08 01:11:44;;;;;;;0.9;0.9;;;;;;;;;;;;;
2021/05/08 01:14:10;;;;;;;1.9;1.1;;;;;;;;;;;;;
2021/05/08 01:16:36;;;;;;;1.2;1;;;;;;;;;;;;;
2021/05/08 01:19:02;;;;;;;0.6;0.6;;;;;;;;;;;;;
2021/05/08 01:21:27;;;;;;;0.8;0.7;;;;;;;;;;;;;
2021/05/08 01:23:54;;;;;;;0.8;0.8;;;;;;;;;;;;;
2021/05/08 01:26:19;;;;;;;0.8;0.8;;;;;;;;;;;;;
2021/05/08 01:28:44;;;;;;;0.8;0.7;;;;;;;;;;;;;
2021/05/08 01:31:09;;;;;;;0.5;0.5;;;;;;;;;;;;;
2021/05/08 01:33:35;;;;;;;0.9;0.7;;;;;;;;;;;;;
2021/05/08 01:36:00;;;;;;;1.5;0.9;;;;;;;;;;;;;
2021/05/08 01:38:25;;;;;;;1.4;1;;;;;;;;;;;;;
2021/05/08 01:40:50;;;;;;;1;0.7;;;;;;;;;;;;;
2021/05/08 01:43:16;;;;;;;1.3;0.7;;;;;;;;;;;;;
2021/05/08 01:45:41;;;;;;;1.9;0.8;;;;;;;;;;;;;
2021/05/08 01:58:14;;;;;;;2.4;1.1;;;;;;;;;;;;;
2021/05/08 02:00:41;;;;;;;0.8;0.8;;;;;;;;;;;;;
2021/05/08 02:03:05;;;;;;;0.6;0.5;;;;;;;;;;;;;
2021/05/08 02:05:30;;;;;;;1.5;1.1;;;;;;;;;;;;;
2021/05/08 02:07:55;;;;;;;7.6;1;;;;;;;;;;;;;
2021/05/08 02:10:21;;;;;;;0.6;0.5;;;;;;;;;;;;;
2021/05/08 02:12:47;;;;;;;1.4;0.8;;;;;;;;;;;;;
2021/05/08 02:15:12;;;;;;;0.9;0.7;;;;;;;;;;;;;
2021/05/08 02:17:38;;;;;;;1.2;1;;;;;;;;;;;;;
2021/05/08 02:20:03;;;;;;;1.1;0.9;;;;;;;;;;;;;
2021/05/08 02:22:29;;;;;;;0.7;0.4;;;;;;;;;;;;;
2021/05/08 02:24:54;;;;;;;1.1;1;;;;;;;;;;;;;
2021/05/08 02:27:20;;;;;;;1.1;0.6;;;;;;;;;;;;;
2021/05/08 02:29:45;;;;;;;1.1;0.9;;;;;;;;;;;;;
2021/05/08 02:32:11;;;;;;;3.4;0.9;;;;;;;;;;;;;
2021/05/08 02:34:37;;;;;;;0.8;0.6;;;;;;;;;;;;;
2021/05/08 02:37:02;;;;;;;1;0.9;;;;;;;;;;;;;
2021/05/08 02:39:28;;;;;;;1.1;0.8;;;;;;;;;;;;;
2021/05/08 02:41:53;;;;;;;1.1;0.9;;;;;;;;;;;;;
2021/05/08 02:44:19;;;;;;;0.6;0.6;;;;;;;;;;;;;
2021/05/08 02:46:44;;;;;;;0.6;0.6;;;;;;;;;;;;;
2021/05/08 02:49:09;;;;;;;0.5;0.5;;;;;;;;;;;;;
2021/05/08 02:51:35;;;;;;;0.9;0.6;;;;;;;;;;;;;
2021/05/08 02:54:01;;;;;;;0.5;0.5;;;;;;;;;;;;;
2021/05/08 02:56:26;;;;;;;0.6;0.6;;;;;;;;;;;;;
2021/05/08 02:58:51;;;;;;;3.3;0.8;;;;;;;;;;;;;
2021/05/08 03:01:17;;;;;;;0.5;0.5;;;;;;;;;;;;;
2021/05/08 03:03:42;;;;;;;0.7;0.6;;;;;;;;;;;;;
2021/05/08 03:06:07;;;;;;;0.6;0.5;;;;;;;;;;;;;
2021/05/08 03:08:32;;;;;;;0.4;0.4;;;;;;;;;;;;;
2021/05/08 03:10:58;;;;;;;0.9;0.8;;;;;;;;;;;;;
2021/05/08 03:13:23;;;;;;;0.9;0.8;;;;;;;;;;;;;
2021/05/08 03:15:49;;;;;;;0.7;0.7;;;;;;;;;;;;;
2021/05/08 03:18:14;;;;;;;1;0.9;;;;;;;;;;;;;
2021/05/08 03:20:40;;;;;;;0.7;0.7;;;;;;;;;;;;;
2021/05/08 03:23:06;;;;;;;0.8;0.8;;;;;;;;;;;;;
2021/05/08 03:25:31;;;;;;;1.1;1;;;;;;;;;;;;;
2021/05/08 03:27:56;;;;;;;0.6;0.6;;;;;;;;;;;;;
2021/05/08 03:30:23;;;;;;;3.2;1.2;;;;;;;;;;;;;
2021/05/08 03:32:48;;;;;;;0.7;0.7;;;;;;;;;;;;;
2021/05/08 03:35:14;;;;;;;0.8;0.8;;;;;;;;;;;;;
2021/05/08 03:37:39;;;;;;;1.3;0.7;;;;;;;;;;;;;
2021/05/08 03:40:05;;;;;;;1.1;0.9;;;;;;;;;;;;;
2021/05/08 03:42:30;;;;;;;0.5;0.5;;;;;;;;;;;;;
2021/05/08 03:44:56;;;;;;;0.5;0.5;;;;;;;;;;;;;
2021/05/08 03:47:21;;;;;;;1.4;0.6;;;;;;;;;;;;;
2021/05/08 03:49:47;;;;;;;1;0.8;;;;;;;;;;;;;
2021/05/08 03:52:12;;;;;;;0.4;0.4;;;;;;;;;;;;;
2021/05/08 03:54:39;;;;;;;0.6;0.6;;;;;;;;;;;;;
2021/05/08 03:57:05;;;;;;;0.8;0.6;;;;;;;;;;;;;
2021/05/08 03:59:29;;;;;;;1.7;0.8;;;;;;;;;;;;;
2021/05/08 04:02:31;;;;;;;0.5;0.5;;;;;;;2.5;87.6709;940.7266;;;;
2021/05/08 04:04:56;;;;;;;0.6;0.6;;;;;;;2.5;87.50293;940.7076;;;;
2021/05/08 04:07:23;;;;;;;0.5;0.5;;;;;;;2.52;87.50879;940.6537;;;;
2021/05/08 04:09:48;;;;;;;1.1;0.8;;;;;;;2.49;87.62402;940.7475;;;;
2021/05/08 04:12:15;;;;;;;1.3;0.7;;;;;;;2.46;87.70801;940.7704;;;;
2021/05/08 04:14:40;;;;;;;1.1;1;;;;;;;2.44;87.97168;940.7845;;;;
2021/05/08 04:17:08;;;;;;;0.9;0.7;;;;;;;2.36;88.15625;940.7264;;;;
2021/05/08 04:19:33;;;;;;;3;1.1;;;;;;;2.37;88.19141;940.6309;;;;
2021/05/08 04:21:59;;;;;;;1.5;0.8;;;;;;;2.31;88.91992;940.6669;;;;
2021/05/08 04:24:25;;;;;;;0.7;0.7;;;;;;;2.35;88.80371;940.74;;;;
2021/05/08 04:26:51;;;;;;;0.7;0.7;;;;;;;2.38;88.69922;940.7611;;;;
2021/05/08 04:29:16;;;;;;;0.7;0.7;;;;;;;2.4;88.69434;940.7723;;;;
2021/05/08 04:31:44;;;;;;;0.7;0.7;;;;;;;2.41;88.72754;940.8184;;;;
2021/05/08 04:34:09;;;;;;;1.3;1.2;;;;;;;2.51;88.61426;940.767;;;;
2021/05/08 04:36:35;;;;;;;3.3;1.3;;;;;;;2.57;87.84277;940.9;;;;
2021/05/08 04:39:00;;;;;;;2.8;1.3;;;;;;;2.56;87.91895;940.8583;;;;
2021/05/08 04:41:25;;;;;;;1.2;1;;;;;;;2.59;87.71191;940.8437;;;;
2021/05/08 04:43:50;;;;;;;1.7;1.1;;;;;;;2.65;87.47852;940.962;;;;
2021/05/08 04:46:15;;;;;;;0.9;0.9;;;;;;;2.64;87.30664;940.967;;;;
2021/05/08 04:48:41;;;;;;;0.6;0.6;;;;;;;2.59;87.43164;941.0606;;;;
2021/05/08 04:51:06;;;;;;;0.7;0.7;;;;;;;2.55;87.56055;941.0402;;;;
2021/05/08 04:53:31;;;;;;;0.7;0.6;;;;;;;2.55;87.63867;940.9978;;;;
2021/05/08 04:55:58;;;;;;;1;0.9;;;;;;;2.53;88.10449;941.0126;;;;
2021/05/08 04:58:23;;;;;;;2.3;0.9;;;;;;;2.55;88.03125;940.9208;;;;
2021/05/08 05:00:48;;;;;;;0.8;0.8;;;;;;;2.57;88.25781;940.8752;;;;
2021/05/08 05:03:15;;;;;;;0.8;0.8;;;;;;;2.63;87.69727;940.8613;;;;
2021/05/08 05:05:40;;;;;;;1.8;0.6;;;;;;;2.67;87.66113;940.9277;;;;
2021/05/08 05:08:06;;;;;;;0.6;0.6;;;;;;;2.72;87.40137;940.855;;;;
2021/05/08 05:10:31;;;;;;;0.8;0.8;;;;;;;2.94;87.60547;940.8558;;;;
2021/05/08 05:12:59;;;;;;;10.6;4.2;;;;;;;3.15;86.13281;940.8721;;;;
2021/05/08 05:15:22;;;;;;;8.1;4.5;;;;;;;3.41;85.76855;940.8531;;;;
2021/05/08 05:17:47;;;;;;;11.3;6.2;;;;;;;3.65;84.39258;940.8728;;;;
2021/05/08 05:20:12;;;;;;;14.1;5.6;;;;;;;4.11;83.82031;940.8215;;;;
2021/05/08 05:22:38;;;;;;;10.7;4.4;;;;;;;5.57;78.76758;940.8191;;;;
2021/05/08 05:25:03;;;;;;;14.8;5.5;;;;;;;6.94;72.125;940.7511;;;;
2021/05/08 05:27:30;;;;;;;10.9;4.4;;;;;;;7.27;69.34863;940.6819;;;;
2021/05/08 05:29:55;;;;;;;5.9;3;;;;;;;7.28;69.04395;940.7321;;;;
2021/05/08 05:32:21;;;;;;;2.6;1.5;;;;;;;7.1;68.66211;940.7785;;;;
2021/05/08 05:34:46;;;;;;;1.4;0.9;;;;;;;7.17;69.50293;940.7065;;;;
2021/05/08 05:37:12;;;;;;;1;0.7;;;;;;;7.26;67.18164;940.7496;;;;
2021/05/08 05:39:38;;;;;;;1.4;0.8;;;;;;;7.37;66.66602;940.7531;;;;
2021/05/08 05:42:03;;;;;;;1.4;0.6;;;;;;;7.85;65.31348;940.6692;;;;
2021/05/08 05:44:28;;;;;;;1.8;0.8;;;;;;;8.26;65.06836;940.6783;;;;
2021/05/08 05:46:54;;;;;;;2.1;0.9;;;;;;;8.77;63.49609;940.5826;;;;
2021/05/08 05:49:19;;;;;;;0.7;0.7;;;;;;;9.19;60.2334;940.5688;;;;
2021/05/08 05:51:44;;;;;;;0.4;0.4;;;;;;;9.84;59.10449;940.5754;;;;
2021/05/08 05:54:09;;;;;;;1.3;0.8;;;;;;;10.05;58.2207;940.6227;;;;
2021/05/08 05:56:35;;;;;;;0.3;0.3;;;;;;;9.97;56.39844;940.5305;;;;
2021/05/08 05:59:00;;;;;;;1.1;0.6;;;;;;;11.08;55.91309;940.5406;;;;
2021/05/08 06:01:26;;;;;;;1.1;0.8;;;;;;;11.43;51.1875;940.5161;;;;
2021/05/08 06:03:51;;;;;;;0.5;0.3;;;;;;;11.03;50.41992;940.4955;;;;
2021/05/08 06:06:17;;;;;;;0.5;0.4;;;;;;;11.91;50.68262;940.4327;;;;
2021/05/08 06:08:42;;;;;;;0.3;0.2;;;;;;;12.76;47.46582;940.407;;;;
2021/05/08 06:11:10;;;;;;;0.5;0.3;;;;;;;13.48;44.74023;940.3506;;;;
2021/05/08 06:13:35;;;;;;;0.2;0.2;;;;;;;14.3;43.81055;940.3286;;;;
2021/05/08 06:16:00;;;;;;;0.1;0.1;;;;;;;14.34;41.5459;940.3156;;;;
2021/05/08 06:18:25;;;;;;;0.6;0.6;;;;;;;13.84;43.55762;940.2787;;;;
2021/05/08 06:20:50;;;;;;;0.7;0.3;;;;;;;14.37;43.55273;940.302;;;;
2021/05/08 06:23:15;;;;;;;0.2;0.2;;;;;;;15.37;41.1709;940.2952;;;;
2021/05/08 06:25:40;;;;;;;3;0.3;;;;;;;16.2;39.60547;940.1652;;;;
2021/05/08 06:28:06;;;;;;;0.3;0.2;;;;;;;16.96;38.21484;940.2302;;;;
2021/05/08 06:30:31;;;;;;;1;0.5;;;;;;;17.38;36.25586;940.1819;;;;
2021/05/08 06:32:57;;;;;;;0.9;0.3;;;;;;;18.19;35.43945;940.0905;;;;
2021/05/08 06:35:23;;;;;;;2.5;0.6;;;;;;;18.65;32.30176;940.1118;;;;
2021/05/08 06:37:48;;;;;;;0.2;0.2;;;;;;;17.72;33.62598;940.1127;;;;
2021/05/08 06:40:13;;;;;;;0.8;0.4;;;;;;;16.26;34.75195;940.1216;;;;
2021/05/08 06:42:38;;;;;;;0.3;0.1;;;;;;;17.25;34.03125;940.1057;;;;
2021/05/08 06:45:03;;;;;;;0.5;0.4;;;;;;;18.25;34.1084;940.0631;;;;
2021/05/08 06:47:28;;;;;;;2.1;0.3;;;;;;;19.65;30.61426;940.034;;;;
2021/05/08 06:49:54;;;;;;;0.1;0;;;;;;;20.21;29.36914;940.0179;;;;
2021/05/08 06:52:19;;;;;;;0.3;0.3;;;;;;;18.18;31.85938;940.0327;;;;
2021/05/08 06:54:45;;;;;;;0.4;0.4;;;;;;;16.78;33.98242;940.0751;;;;
2021/05/08 06:57:29;;;;;;;0.8;0.3;;;;;;;17.72;33.32324;939.9645;;;;
2021/05/08 06:59:48;;;;;;;0.1;0.1;;;;;;;18.11;31.91309;939.9758;;;;
2021/05/08 07:02:13;;;;;;;2.5;0.6;;;;;;;18.66;31.2207;939.997;;;;
2021/05/08 07:04:38;;;;;;;0;0;;;;;;;19.46;29.66895;939.9236;;;;
2021/05/08 07:07:03;;;;;;;0.5;0.2;;;;;;;19.15;29.67188;939.978;;;;
2021/05/08 07:09:28;;;;;;;0.5;0.4;;;;;;;21.08;29.05273;939.9553;;;;
2021/05/08 07:11:54;;;;;;;1.1;0.6;;;;;;;22.22;26.30176;939.8842;;;;
2021/05/08 07:14:19;;;;;;;0.1;0.1;;;;;;;21.76;25.08008;939.8738;;;;
2021/05/08 07:16:44;;;;;;;3.2;0.6;;;;;;;21.96;26.98926;939.8331;;;;
2021/05/08 07:19:11;;;;;;;0.7;0.3;;;;;;;21.06;26.81738;939.8667;;;;
2021/05/08 07:21:37;;;;;;;0.2;0.2;;;;;;;21.51;25.95508;939.8236;;;;
2021/05/08 07:24:01;;;;;;;0;0;;;;;;;20.78;26.34473;939.8196;;;;
2021/05/08 07:26:27;;;;;;;1;0.5;;;;;;;22.6;26.25293;939.7795;;;;
2021/05/08 07:28:53;;;;;;;0.6;0.2;;;;;;;24.63;24.36816;939.7142;;;;
2021/05/08 07:31:19;;;;;;;0.6;0.3;;;;;;;23.87;23.37402;939.7506;;;;
2021/05/08 07:33:44;;;;;;;0;0;;;;;;;24.68;23.91211;939.7274;;;;
2021/05/08 07:36:09;;;;;;;0.3;0.2;;;;;;;26.1;22.46191;939.6384;;;;
2021/05/08 07:38:35;;;;;;;0.1;0.1;;;;;;;27.08;20.50781;939.688;;;;
2021/05/08 07:41:00;;;;;;;0.4;0.3;;;;;;;27.26;19.61523;939.6741;;;;
2021/05/08 07:43:26;;;;;;;1.2;0.3;;;;;;;24.41;21.03418;939.6415;;;;
2021/05/08 07:45:51;;;;;;;0;0;;;;;;;25.03;21.88867;939.6161;;;;
2021/05/08 07:48:16;;;;;;;0.1;0.1;;;;;;;24.82;22.83398;939.6191;;;;
2021/05/08 07:50:42;;;;;;;0.2;0.2;;;;;;;23.71;22.90723;939.6225;;;;
2021/05/08 07:53:07;;;;;;;0.1;0.1;;;;;;;23.36;22.08984;939.5164;;;;
2021/05/08 07:55:33;;;;;;;0.3;0.2;;;;;;;23.11;22.92285;939.5344;;;;
2021/05/08 07:57:59;;;;;;;0.3;0.3;;;;;;;22.29;25.21484;939.5042;;;;
2021/05/08 08:00:25;;;;;;;0.1;0.1;;;;;;;25.69;21.80273;939.4398;;;;
2021/05/08 08:02:50;;;;;;;0.1;0.1;;;;;;;25.58;21.18359;939.3934;;;;
2021/05/08 08:05:16;;;;;;;0.2;0.1;;;;;;;24.12;20.56055;939.4302;;;;
2021/05/08 08:07:41;;;;;;;0.2;0.2;;;;;;;21.88;22.58984;939.4261;;;;
2021/05/08 08:10:07;;;;;;;0.9;0.2;;;;;;;24.04;23.53613;939.3805;;;;
2021/05/08 08:12:33;;;;;;;0.2;0;;;;;;;26;23.47363;939.3567;;;;
2021/05/08 08:14:58;;;;;;;0;0;;;;;;;26.14;20.67773;939.2927;;;;
2021/05/08 08:20:55;;;;;;;0.2;0.1;;;;;;;27.38;20.21289;939.2645;;;;
2021/05/08 08:23:20;;;;;;;0.1;0.1;;;;;;;28.02;18.26953;939.2572;;;;
2021/05/08 08:25:45;;;;;;;2.9;0.3;;;;;;;28.59;19.36328;939.2621;;;;
2021/05/08 08:28:10;;;;;;;0.6;0.3;;;;;;;28.99;18.54785;939.198;;;;
2021/05/08 08:30:35;;;;;;;0.2;0.2;;;;;;;28.44;19.35742;939.1967;;;;
2021/05/08 08:33:01;;;;;;;1.4;0.2;;;;;;;27.13;20.28516;939.2173;;;;
2021/05/08 08:35:26;;;;;;;0.2;0.1;;;;;;;28.47;19.92871;939.1727;;;;
2021/05/08 08:37:51;;;;;;;0.2;0.1;;;;;;;29.36;17.40723;939.0933;;;;
2021/05/08 08:40:17;;;;;;;0.1;0.1;;;;;;;29.66;17.69238;939.0622;;;;
2021/05/08 08:42:42;;;;;;;0.5;0.3;;;;;;;29.19;16.05469;939.046;;;;
2021/05/08 08:45:07;;;;;;;1;0.2;;;;;;;29.1;21.12402;939.072;;;;
2021/05/08 08:47:32;;;;;;;1.8;0.2;;;;;;;29.21;19.84277;939.0578;;;;
2021/05/08 08:49:59;;;;;;;0.1;0.1;;;;;;;28.12;19.39063;939.0964;;;;
2021/05/08 08:52:24;;;;;;;0.1;0.1;;;;;;;28.28;17.8877;939.0385;;;;
2021/05/08 08:54:49;;;;;;;0.4;0.3;;;;;;;29.21;17.52051;939.008;;;;
2021/05/08 08:57:14;;;;;;;0.2;0.2;;;;;;;29.15;16.99414;939.0442;;;;
2021/05/08 08:59:39;;;;;;;0.2;0.1;;;;;;;29.97;15.96289;939.0198;;;;
2021/05/08 09:02:06;;;;;;;0.5;0.3;;;;;;;29.58;17.77344;938.9764;;;;
2021/05/08 09:04:31;;;;;;;0.4;0.2;;;;;;;28.9;19.18652;939.0018;;;;
2021/05/08 09:06:58;;;;;;;1.6;0.1;;;;;;;28.12;19.77051;939.0211;;;;
2021/05/08 09:09:23;;;;;;;0.2;0.2;;;;;;;27.58;19.54492;938.9953;;;;
2021/05/08 09:11:49;;;;;;;0.1;0;;;;;;;27.5;18.9248;938.9747;;;;
2021/05/08 09:14:14;;;;;;;0.1;0.1;;;;;;;28.34;17.97363;938.9645;;;;
2021/05/08 09:16:40;;;;;;;0.2;0.1;;;;;;;28.86;18.60156;938.9767;;;;
2021/05/08 09:19:05;;;;;;;0.2;0.2;;;;;;;29.02;17.78711;938.9567;;;;
2021/05/08 09:21:32;;;;;;;0.1;0;;;;;;;27.3;18.85742;938.9852;;;;
2021/05/08 09:23:57;;;;;;;0.1;0.1;;;;;;;26.05;21.1582;938.8744;;;;
2021/05/08 09:26:23;;;;;;;0.1;0.1;;;;;;;25.44;20.78711;938.8456;;;;
2021/05/08 09:28:48;;;;;;;0.1;0.1;;;;;;;25.61;21.45703;938.8272;;;;
2021/05/08 09:31:13;;;;;;;0.1;0.1;;;;;;;25.87;22.00098;938.8521;;;;
2021/05/08 09:33:38;;;;;;;0;0;;;;;;;25.55;23.26172;938.8275;;;;
2021/05/08 09:36:03;;;;;;;0.7;0.4;;;;;;;25.41;22.1084;938.8281;;;;
2021/05/08 09:38:28;;;;;;;0.1;0.1;;;;;;;25.28;22.55078;938.734;;;;
2021/05/08 09:40:53;;;;;;;0;0;;;;;;;25.02;22.76172;938.7854;;;;
2021/05/08 09:43:20;;;;;;;0.3;0.1;;;;;;;24.63;20.9502;938.7794;;;;
2021/05/08 09:45:44;;;;;;;0.3;0.3;;;;;;;24.38;22.92969;938.7343;;;;
2021/05/08 09:48:10;;;;;;;0.1;0.1;;;;;;;24.34;23.1748;938.7009;;;;
2021/05/08 09:50:35;;;;;;;0.1;0.1;;;;;;;24.31;23.20898;938.6635;;;;
2021/05/08 09:53:00;;;;;;;0.2;0.1;;;;;;;23.39;25.17188;938.621;;;;
2021/05/08 09:55:25;;;;;;;1.4;0.3;;;;;;;22.34;26.69629;938.6139;;;;
2021/05/08 09:57:50;;;;;;;0.2;0.1;;;;;;;21.95;26.30859;938.5214;;;;
2021/05/08 10:00:15;;;;;;;0.1;0.1;;;;;;;22.8;25.56055;938.5209;;;;
2021/05/08 10:02:40;;;;;;;0.5;0.3;;;;;;;22.89;26.77539;938.5375;;;;
2021/05/08 10:05:06;;;;;;;0;0;;;;;;;22.88;24.9541;938.5525;;;;
2021/05/08 10:07:32;;;;;;;5.3;0.3;;;;;;;23.56;23.49902;938.5262;;;;
2021/05/08 10:09:57;;;;;;;0.7;0.2;;;;;;;23.51;24.66113;938.5247;;;;
2021/05/08 10:12:21;;;;;;;0;0;;;;;;;23.86;26.13867;938.5034;;;;
2021/05/08 10:14:48;;;;;;;0;0;;;;;;;23.96;25.19238;938.5723;;;;
2021/05/08 10:17:13;;;;;;;0.2;0;;;;;;;24.2;22.6377;938.4623;;;;
2021/05/08 10:19:38;;;;;;;0.1;0.1;;;;;;;24.21;23.86328;938.5165;;;;
2021/05/08 10:22:03;;;;;;;0.2;0.2;;;;;;;24.1;23.74023;938.4902;;;;
2021/05/08 10:24:28;;;;;;;0.4;0.2;;;;;;;23.93;24.4375;938.4448;;;;
2021/05/08 10:26:57;;;;;;;0.1;0.1;;;;;;;23.97;24.33301;938.4832;;;;
2021/05/08 10:29:18;;;;;;;0;0;;;;;;;24.16;22.91797;938.3811;;;;
2021/05/08 10:31:44;;;;;;;0.2;0.1;;;;;;;23.42;23.76172;938.4275;;;;
2021/05/08 10:34:11;;;;;;;1;0.2;;;;;;;22.57;27.74219;938.2985;;;;
2021/05/08 10:36:36;;;;;;;0;0;;;;;;;22.93;26.64844;938.368;;;;
2021/05/08 10:39:01;;;;;;;0.1;0.1;;;;;;;23.14;24.80469;938.3723;;;;
2021/05/08 10:41:29;;;;;;;0.4;0.1;;;;;;;22.46;27.75879;938.2902;;;;
2021/05/08 10:43:54;;;;;;;0.3;0.2;;;;;;;22.57;26.95605;938.2415;;;;
2021/05/08 10:46:17;;;;;;;0.1;0.1;;;;;;;22.83;27.21875;938.1646;;;;
2021/05/08 10:48:42;;;;;;;0.1;0.1;;;;;;;22.77;26.3457;938.1653;;;;
2021/05/08 10:51:07;;;;;;;0.1;0.1;;;;;;;22.67;27.30176;938.1864;;;;
2021/05/08 10:53:32;;;;;;;0;0;;;;;;;22.78;28.07227;938.2414;;;;
2021/05/08 10:55:58;;;;;;;0;0;;;;;;;23.58;27.02832;938.1614;;;;
2021/05/08 10:58:22;;;;;;;0.1;0.1;;;;;;;24.15;26.48633;938.1202;;;;
2021/05/08 11:00:48;;;;;;;0;0;;;;;;;24.01;25.81836;938.0844;;;;
2021/05/08 11:03:12;;;;;;;1.3;0.1;;;;;;;24.08;26.22363;938.0728;;;;
2021/05/08 11:05:39;;;;;;;0;0;;;;;;;23.76;29.2168;938.0695;;;;
2021/05/08 11:08:05;;;;;;;0.4;0.2;;;;;;;22.78;29.64551;938.0719;;;;
2021/05/08 11:10:29;;;;;;;0.1;0;;;;;;;23.39;26.13574;937.9465;;;;
2021/05/08 11:12:55;;;;;;;0.3;0.2;;;;;;;23.87;26.03418;937.9545;;;;
2021/05/08 11:15:22;;;;;;;0;0;;;;;;;24.15;26.09766;937.9324;;;;
2021/05/08 11:17:49;;;;;;;1.3;0.3;;;;;;;23.88;27.49414;937.8883;;;;
2021/05/08 11:20:14;;;;;;;0.7;0.4;;;;;;;23.53;27.77832;937.8784;;;;
2021/05/08 11:22:40;;;;;;;0;0;;;;;;;22.93;29.0332;937.8025;;;;
2021/05/08 11:25:06;;;;;;;0.1;0.1;;;;;;;22.56;29.74805;937.8713;;;;
2021/05/08 11:27:33;;;;;;;0.1;0.1;;;;;;;22.37;29.40723;937.8585;;;;
2021/05/08 11:29:56;;;;;;;0.5;0.1;;;;;;;22.28;30.9248;937.8391;;;;
2021/05/08 11:32:21;;;;;;;0;0;;;;;;;21.97;31.88867;937.8336;;;;
2021/05/08 11:34:46;;;;;;;0.1;0.1;;;;;;;21.62;30.83301;937.7958;;;;
2021/05/08 11:37:11;;;;;;;0;0;;;;;;;22.01;29.875;937.817;;;;
2021/05/08 11:39:36;;;;;;;0;0;;;;;;;22.01;30.09863;937.7747;;;;
2021/05/08 11:42:01;;;;;;;0.3;0.1;;;;;;;21.9;29.97266;937.7205;;;;
2021/05/08 11:44:26;;;;;;;0.2;0.1;;;;;;;21.79;31.28906;937.6761;;;;
2021/05/08 11:46:51;;;;;;;1.9;0.2;;;;;;;21.98;29.70898;937.63;;;;
2021/05/08 11:49:17;;;;;;;0.2;0.1;;;;;;;21.58;29.62402;937.6434;;;;
2021/05/08 11:51:42;;;;;;;0.4;0.2;;;;;;;21.49;30.33203;937.6389;;;;
2021/05/08 11:54:10;;;;;;;0.2;0.2;;;;;;;21.41;31.48535;937.6511;;;;
2021/05/08 11:56:35;;;;;;;0.5;0.2;;;;;;;21.34;31.18848;937.6436;;;;
2021/05/08 11:59:00;;;;;;;0.2;0.1;;;;;;;21.41;31.27539;937.5731;;;;
2021/05/08 12:01:25;;;;;;;0.4;0.2;;;;;;;20.8;32.12012;937.5733;;;;
2021/05/08 12:03:50;;;;;;;0.9;0.1;;;;;;;20.71;33.86621;937.5743;;;;
2021/05/08 12:06:15;;;;;;;0.1;0.1;;;;;;;20.96;30.45898;937.5208;;;;
2021/05/08 12:08:41;;;;;;;1;0.2;;;;;;;21.18;29.88965;937.4611;;;;
2021/05/08 12:11:06;;;;;;;0.2;0.1;;;;;;;21.26;29.25195;937.4615;;;;
2021/05/08 12:13:31;;;;;;;0.1;0.1;;;;;;;21.3;32.84766;937.4578;;;;
2021/05/08 12:15:56;;;;;;;3.4;0.1;;;;;;;21.5;29.6543;937.4464;;;;
2021/05/08 12:18:21;;;;;;;0.2;0.2;;;;;;;21.43;31.21777;937.4183;;;;
2021/05/08 12:20:46;;;;;;;0.1;0;;;;;;;21.14;33.95801;937.3775;;;;
2021/05/08 12:23:11;;;;;;;0.4;0.3;;;;;;;20.6;33.04004;937.3159;;;;
2021/05/08 12:25:38;;;;;;;4.7;0.2;;;;;;;20.41;34.52148;937.205;;;;
2021/05/08 12:28:03;;;;;;;0;0;;;;;;;20.65;31.20898;937.1675;;;;
2021/05/08 12:30:28;;;;;;;0;0;;;;;;;20.89;31.38965;937.14;;;;
2021/05/08 12:32:54;;;;;;;0.2;0.1;;;;;;;21.14;31.52441;937.0845;;;;
2021/05/08 12:35:19;;;;;;;0.1;0.1;;;;;;;21.4;30.05762;937.1278;;;;
2021/05/08 12:37:45;;;;;;;0;0;;;;;;;21.36;32.02051;937.1424;;;;
2021/05/08 12:40:11;;;;;;;0;0;;;;;;;21.26;31.43945;937.1271;;;;
2021/05/08 12:42:36;;;;;;;0;0;;;;;;;21.37;32.14941;937.1008;;;;
2021/05/08 12:45:01;;;;;;;0.2;0.1;;;;;;;21.38;30.83984;937.1586;;;;
2021/05/08 12:47:28;;;;;;;0.3;0.1;;;;;;;21.36;31.18945;936.995;;;;
2021/05/08 12:49:53;;;;;;;0.1;0.1;;;;;;;21.31;29.62891;937.0413;;;;
2021/05/08 12:52:19;;;;;;;0;0;;;;;;;21.12;31.72168;936.9142;;;;
2021/05/08 12:54:44;;;;;;;0.6;0.3;;;;;;;20.92;32.37402;936.9011;;;;
2021/05/08 12:57:10;;;;;;;0.1;0.1;;;;;;;20.91;36.06836;936.9402;;;;
2021/05/08 12:59:35;;;;;;;0.1;0.1;;;;;;;21.07;30.71289;936.9135;;;;
2021/05/08 13:02:01;;;;;;;1.6;0.3;;;;;;;21.15;31.96973;936.8459;;;;
2021/05/08 13:04:26;;;;;;;0;0;;;;;;;21.12;34.14355;936.8518;;;;
2021/05/08 13:06:51;;;;;;;0;0;;;;;;;21.15;32.8584;936.8201;;;;
2021/05/08 13:09:17;;;;;;;0.2;0.1;;;;;;;20.93;33.27539;936.7592;;;;
2021/05/08 13:11:43;;;;;;;0.1;0;;;;;;;20.81;31.92188;936.668;;;;
2021/05/08 13:14:08;;;;;;;0.1;0;;;;;;;20.92;34.28027;936.6364;;;;
2021/05/08 13:16:33;;;;;;;0.1;0.1;;;;;;;21.17;31.03516;936.6282;;;;
2021/05/08 13:18:59;;;;;;;0.3;0.1;;;;;;;21.18;32.10059;936.5881;;;;
2021/05/08 13:21:24;;;;;;;0.1;0.1;;;;;;;21.13;31.83984;936.6102;;;;
2021/05/08 13:23:49;;;;;;;0.2;0.2;;;;;;;21.13;32.79883;936.6459;;;;
2021/05/08 13:26:14;;;;;;;0;0;;;;;;;21.18;30.27539;936.5452;;;;
2021/05/08 13:28:39;;;;;;;0.8;0.4;;;;;;;21.16;32.53223;936.6163;;;;
2021/05/08 13:31:06;;;;;;;1.2;0.2;;;;;;;21.02;32.60352;936.6152;;;;
2021/05/08 13:33:31;;;;;;;0;0;;;;;;;20.9;33.20313;936.5666;;;;
2021/05/08 13:35:58;;;;;;;0;0;;;;;;;20.64;34.43359;936.5756;;;;
2021/05/08 13:38:24;;;;;;;0.2;0.1;;;;;;;20.59;32.61914;936.4952;;;;
2021/05/08 13:40:49;;;;;;;0.1;0.1;;;;;;;20.3;32.7959;936.455;;;;
2021/05/08 13:43:14;;;;;;;0.1;0;;;;;;;20.09;35.65137;936.5332;;;;
2021/05/08 13:45:40;;;;;;;0.3;0.1;;;;;;;19.9;34.00293;936.4698;;;;
2021/05/08 13:48:05;;;;;;;0.1;0.1;;;;;;;19.82;35.33789;936.4292;;;;
2021/05/08 13:50:32;;;;;;;0.1;0.1;;;;;;;19.94;33.66699;936.4476;;;;
2021/05/08 13:52:57;;;;;;;0.1;0.1;;;;;;;20.02;35.62207;936.4382;;;;
2021/05/08 13:55:23;;;;;;;0;0;;;;;;;19.91;36.42969;936.4525;;;;
2021/05/08 13:57:48;;;;;;;0.1;0.1;;;;;;;19.92;33.6543;936.5023;;;;
2021/05/08 14:00:14;;;;;;;0.2;0.2;;;;;;;19.83;37.71777;936.4542;;;;
2021/05/08 14:02:39;;;;;;;0.1;0.1;;;;;;;19.7;35.89941;936.4356;;;;
2021/05/08 14:05:04;;;;;;;0.2;0.1;;;;;;;19.65;34.48535;936.467;;;;
2021/05/08 14:07:30;;;;;;;0.2;0.2;;;;;;;19.74;35.06348;936.394;;;;
2021/05/08 14:09:56;;;;;;;0;0;;;;;;;19.82;34.85938;936.375;;;;
2021/05/08 14:12:21;;;;;;;0.4;0.3;;;;;;;19.83;34.60449;936.3837;;;;
2021/05/08 14:14:48;;;;;;;0.1;0.1;;;;;;;19.81;34.25195;936.38;;;;
2021/05/08 14:17:12;;;;;;;0.1;0.1;;;;;;;20;35.16602;936.3416;;;;
2021/05/08 14:19:39;;;;;;;0.6;0.2;;;;;;;20;36.95117;936.361;;;;
2021/05/08 14:22:04;;;;;;;0.1;0.1;;;;;;;19.91;35.87012;936.4089;;;;
2021/05/08 14:24:29;;;;;;;0.3;0.3;;;;;;;19.89;34.44531;936.3942;;;;
2021/05/08 14:26:54;;;;;;;0.2;0.1;;;;;;;19.48;36.73145;936.3655;;;;
2021/05/08 14:29:21;;;;;;;0.2;0.2;;;;;;;19.48;36.24219;936.38;;;;
2021/05/08 14:31:46;;;;;;;0;0;;;;;;;19.5;34.96289;936.3641;;;;
2021/05/08 14:34:12;;;;;;;1.3;0.2;;;;;;;19.37;37.37598;936.3543;;;;
2021/05/08 14:36:37;;;;;;;0.4;0.1;;;;;;;19.42;35.41016;936.2708;;;;
2021/05/08 14:39:03;;;;;;;1.2;0.2;;;;;;;19.47;37.08105;936.3187;;;;
2021/05/08 14:41:34;;;;;;;0.4;0.2;;;;;;;19.54;35.60742;936.2864;;;;
2021/05/08 14:44:03;;;;;;;0.1;0.1;;;;;;;19.54;36.08496;936.2985;;;;
2021/05/08 14:46:25;;;;;;;0.2;0.1;;;;;;;19.47;36.21875;936.3769;;;;
2021/05/08 14:48:50;;;;;;;0;0;;;;;;;19.6;38.1416;936.3162;;;;
2021/05/08 14:51:16;;;;;;;0;0;;;;;;;19.52;36.0957;936.3173;;;;
2021/05/08 14:53:41;;;;;;;0.1;0.1;;;;;;;19.5;37.70117;936.267;;;;
2021/05/08 14:56:06;;;;;;;1.1;0.1;;;;;;;19.48;38.65527;936.2006;;;;
2021/05/08 14:58:31;;;;;;;0.1;0.1;;;;;;;19.38;38.06445;936.1821;;;;
2021/05/08 15:00:57;;;;;;;0.1;0.1;;;;;;;19.43;36.22754;936.1866;;;;
2021/05/08 15:03:23;;;;;;;0.1;0.1;;;;;;;19.39;37.85547;936.1342;;;;
2021/05/08 15:05:48;;;;;;;2.5;0.2;;;;;;;19.12;37.25;936.1228;;;;
2021/05/08 15:08:13;;;;;;;1.6;0.4;;;;;;;19.16;36.16992;936.1492;;;;
2021/05/08 15:10:38;;;;;;;1;0.1;;;;;;;19.3;35.22559;936.1627;;;;
2021/05/08 15:13:04;;;;;;;0.4;0.2;;;;;;;19.38;34.86035;936.1563;;;;
2021/05/08 15:15:29;;;;;;;0.4;0.3;;;;;;;19.5;35.11426;936.087;;;;
2021/05/08 15:17:54;;;;;;;4;0.5;;;;;;;19.63;35.64844;936.0814;;;;
2021/05/08 15:20:19;;;;;;;0;0;;;;;;;19.6;35.30859;936.0754;;;;
2021/05/08 15:22:44;;;;;;;5.7;0.7;;;;;;;19.66;35.88477;936.1192;;;;
2021/05/08 15:25:32;;;;;;;0.1;0.1;;;;;;;19.57;36.72852;936.1158;;;;
2021/05/08 15:27:57;;;;;;;0.1;0.1;;;;;;;19.44;35.91406;936.154;;;;
2021/05/08 15:30:22;;;;;;;0.5;0.2;;;;;;;19.35;38.80664;936.0345;;;;
2021/05/08 15:32:48;;;;;;;0.1;0.1;;;;;;;19.51;37.6084;936.0698;;;;
2021/05/08 15:35:13;;;;;;;0.2;0.2;;;;;;;19.59;36.92773;935.9933;;;;
2021/05/08 15:37:39;;;;;;;0.1;0.1;;;;;;;19.66;37.46973;936.0444;;;;
2021/05/08 15:42:32;;;;;;;0.2;0.2;;;;;;;19.49;37.66602;936.0137;;;;
2021/05/08 15:44:55;;;;;;;0;0;;;;;;;19.49;37.60742;936.0131;;;;
2021/05/08 15:47:21;;;;;;;0.1;0.1;;;;;;;19.35;37.26855;936.0159;;;;
2021/05/08 15:49:46;;;;;;;0;0;;;;;;;19.32;37.38281;935.9295;;;;